Time;durP1;ratioP1;P1;durP2;ratioP2;P2;SDS_P1;SDS_P2;PMS_P1;PMS_P2;Temp;Humidity;BMP_temperature;BMP_pressure;BME280_temperature;BME280_humidity;BME280_pressure;Samples;Min_cycle;Max_cycle;Signal;HPM_P1;HPM_P2
2021/12/25 00:00:48;;;;;;;;;;;;;;;;;;5016767;28;19956;-25
2021/12/25 00:03:16;;;;;;;;;;;;;;;;;;5034267;28;19905;-25
2021/12/25 00:05:42;;;;;;;;;;;;;;;;;;5034104;28;19908;-25
2021/12/25 00:08:08;;;;;;;;;;;;;;;;;;5034017;28;19915;-25
2021/12/25 00:10:34;;;;;;;;;;;;;;;;;;5034167;28;19920;-25
2021/12/25 00:13:00;;;;;;;;;;;;;;;;;;5034354;28;19966;-25
2021/12/25 00:15:27;;;;;;;;;;;;;;;;;;5034077;28;20366;-25
2021/12/25 00:17:53;;;;;;;;;;;;;;;;;;5034174;28;19966;-25
2021/12/25 00:20:20;;;;;;;;;;;;;;;;;;5034165;28;19909;-25
2021/12/25 00:22:46;;;;;;;;;;;;;;;;;;5034096;28;19909;-25
2021/12/25 00:25:13;;;;;;;;;;;;;;;;;;5034019;28;19967;-25
2021/12/25 00:27:48;;;;;;;;;;;;;;;;;;5034217;28;19982;-27
2021/12/25 00:30:22;;;;;;;;;;;;;;;;;;5019957;28;20035;-25
2021/12/25 00:35:18;;;;;;;;;;;;;;;;;;5037471;28;19909;-25
2021/12/25 00:37:45;;;;;;;;;;;;;;;;;;5037495;28;19905;-25
2021/12/25 00:40:13;;;;;;;;;;;;;;;;;;5019998;28;20355;-25
2021/12/25 00:42:39;;;;;;;;;;;;;;;;;;5037706;28;19969;-25
2021/12/25 00:45:05;;;;;;;;;;;;;;;;;;5037411;28;19935;-25
2021/12/25 00:47:31;;;;;;;;;;;;;;;;;;5037185;28;20317;-25
2021/12/25 00:49:58;;;;;;;;;;;;;;;;;;5037178;28;19920;-25
2021/12/25 00:52:24;;;;;;;;;;;;;;;;;;5037572;28;19908;-25
2021/12/25 00:54:50;;;;;;;;;;;;;;;;;;5037229;28;19909;-25
2021/12/25 00:57:17;;;;;;;;;;;;;;;;;;5037335;28;19924;-25
2021/12/25 00:59:43;;;;;;;;;;;;;;;;;;5037408;28;19959;-25
2021/12/25 01:02:10;;;;;;;;;;;;;;;;;;5037326;28;19905;-25
2021/12/25 01:04:37;;;;;;;;;;;;;;;;;;5037033;28;19971;-25
2021/12/25 01:07:04;;;;;;;;;;;;;;;;;;5036864;28;19992;-25
2021/12/25 01:09:30;;;;;;;;;;;;;;;;;;5037223;28;19909;-25
2021/12/25 01:11:57;;;;;;;;;;;;;;;;;;5036850;28;19924;-25
2021/12/25 01:24:48;;;;;;;;;;;;;;;;;;5036540;28;19909;-25
2021/12/25 01:29:48;;;;;;;;;;;;;;;;;;5036595;28;19967;-25
2021/12/25 01:38:02;;;;;;;;;;;;;;;;;;5036304;28;19913;-25
2021/12/25 01:48:39;;;;;;;;;;;;;;;;;;5035987;28;19928;-24
2021/12/25 01:51:06;;;;;;;;;;;;;;;;;;5036019;28;19909;-24
2021/12/25 01:53:32;;;;;;;;;;;;;;;;;;5036012;28;20275;-24
2021/12/25 01:56:00;;;;;;;;;;;;;;;;;;5035795;28;19917;-24
2021/12/25 01:58:26;;;;;;;;;;;;;;;;;;5018413;28;19912;-24
2021/12/25 02:00:52;;;;;;;;;;;;;;;;;;5035895;28;19974;-24
2021/12/25 02:03:18;;;;;;;;;;;;;;;;;;5019069;28;19905;-24
2021/12/25 02:05:45;;;;;;;;;;;;;;;;;;5035892;28;19916;-24
2021/12/25 02:08:12;;;;;;;;;;;;;;;;;;5035985;28;19995;-24
2021/12/25 02:10:38;;;;;;;;;;;;;;;;;;5035694;28;19911;-25
2021/12/25 02:13:04;;;;;;;;;;;;;;;;;;5018216;28;19913;-25
2021/12/25 02:15:30;;;;;;;;;;;;;;;;;;5035545;28;19919;-24
2021/12/25 02:18:23;;;;;;;;;;;;;;;;;;5035471;28;19935;-24
2021/12/25 02:20:55;;;;;;;;;;;;;;;;;;5034773;28;20022;-24
2021/12/25 02:23:23;;;;;;;;;;;;;;;;;;5035725;28;19905;-24
2021/12/25 02:25:49;;;;;;;;;;;;;;;;;;5035382;28;20224;-24
2021/12/25 02:28:17;;;;;;;;;;;;;;;;;;5035315;28;20351;-24
2021/12/25 02:30:44;;;;;;;;;;;;;;;;;;5035274;28;20302;-24
2021/12/25 02:33:10;;;;;;;;;;;;;;;;;;5035275;28;20382;-24
2021/12/25 02:35:38;;;;;;;;;;;;;;;;;;5035404;28;19917;-24
2021/12/25 02:38:04;;;;;;;;;;;;;;;;;;5035078;28;19909;-24
2021/12/25 02:40:30;;;;;;;;;;;;;;;;;;5035425;28;20366;-24
2021/12/25 02:42:56;;;;;;;;;;;;;;;;;;5034964;28;19908;-24
2021/12/25 02:45:22;;;;;;;;;;;;;;;;;;5034976;28;19909;-24
2021/12/25 02:47:50;;;;;;;;;;;;;;;;;;5017470;28;19921;-24
2021/12/25 02:50:18;;;;;;;;;;;;;;;;;;5034824;28;19955;-24
2021/12/25 02:52:44;;;;;;;;;;;;;;;;;;5034803;28;19905;-24
2021/12/25 02:55:11;;;;;;;;;;;;;;;;;;5034821;28;19968;-25
2021/12/25 02:57:37;;;;;;;;;;;;;;;;;;5035011;28;20332;-25
2021/12/25 03:00:03;;;;;;;;;;;;;;;;;;5035103;28;19909;-25
2021/12/25 03:02:29;;;;;;;;;;;;;;;;;;5034800;28;20014;-25
2021/12/25 03:04:55;;;;;;;;;;;;;;;;;;5017426;28;19909;-25
2021/12/25 03:07:24;;;;;;;;;;;;;;;;;;5034621;28;19912;-25
2021/12/25 03:09:52;;;;;;;;;;;;;;;;;;5034710;28;19941;-25
2021/12/25 03:12:27;;;;;;;;;;;;;;;;;;5034903;28;19912;-25
2021/12/25 03:17:28;;;;;;;;;;;;;;;;;;5034503;28;19909;-25
2021/12/25 03:19:56;;;;;;;;;;;;;;;;;;5034523;28;19913;-25
2021/12/25 03:22:24;;;;;;;;;;;;;;;;;;5034600;28;19905;-25
2021/12/25 03:24:50;;;;;;;;;;;;;;;;;;5034763;28;19916;-25
2021/12/25 03:27:16;;;;;;;;;;;;;;;;;;5016919;28;19905;-25
2021/12/25 03:29:42;;;;;;;;;;;;;;;;;;5034376;28;19915;-25
2021/12/25 03:32:09;;;;;;;;;;;;;;;;;;5034631;28;19963;-25
2021/12/25 03:34:35;;;;;;;;;;;;;;;;;;5016913;28;19939;-24
2021/12/25 03:37:01;;;;;;;;;;;;;;;;;;5016833;28;20004;-25
2021/12/25 03:39:27;;;;;;;;;;;;;;;;;;5016934;28;19909;-25
2021/12/25 03:41:56;;;;;;;;;;;;;;;;;;5034358;28;19905;-24
2021/12/25 03:44:23;;;;;;;;;;;;;;;;;;5034418;28;19909;-24
2021/12/25 03:46:52;;;;;;;;;;;;;;;;;;5034445;28;19909;-24
2021/12/25 03:53:06;;;;;;;;;;;;;;;;;;5034315;28;20359;-24
2021/12/25 03:57:56;;;;;;;;;;;;;;;;;;5034316;28;19928;-24
2021/12/25 04:00:29;;;;;;;;;;;;;;;;;;5016887;28;19905;-24
2021/12/25 04:03:00;;;;;;;;;;;;;;;;;;5034641;28;19909;-24
2021/12/25 04:05:30;;;;;;;;;;;;;;;;;;5038066;28;19920;-24
2021/12/25 04:08:03;;;;;;;;;;;;;;;;;;5037925;28;19912;-24
2021/12/25 04:10:33;;;;;;;;;;;;;;;;;;5038253;28;19909;-24
2021/12/25 04:12:59;;;;;;;;;;;;;;;;;;5037941;28;19905;-24
2021/12/25 04:15:27;;;;;;;;;;;;;;;;;;5020301;28;19908;-24
2021/12/25 04:17:53;;;;;;;;;;;;;;;;;;5037797;28;19912;-24
2021/12/25 04:20:20;;;;;;;;;;;;;;;;;;5037647;28;19909;-24
2021/12/25 04:22:56;;;;;;;;;;;;;;;;;;5037846;28;19913;-25
2021/12/25 04:25:27;;;;;;;;;;;;;;;;;;5020081;28;19928;-24
2021/12/25 04:27:54;;;;;;;;;;;;;;;;;;5020086;28;20288;-24
2021/12/25 04:30:32;;;;;;;;;;;;;;;;;;5037529;28;19916;-24
2021/12/25 04:42:31;;;;;;;;;;;;;;;;;;5037928;28;20004;-24
2021/12/25 05:03:11;;;;;;;;;;;;;;;;;;5037172;28;19916;-24
2021/12/25 05:05:38;;;;;;;;;;;;;;;;;;5037014;28;20221;-24
2021/12/25 05:08:07;;;;;;;;;;;;;;;;;;5036838;28;19962;-24
2021/12/25 05:10:35;;;;;;;;;;;;;;;;;;5037211;28;19909;-24
2021/12/25 05:13:01;;;;;;;;;;;;;;;;;;5036891;28;19962;-24
2021/12/25 05:15:28;;;;;;;;;;;;;;;;;;5036260;28;19909;-24
2021/12/25 05:17:54;;;;;;;;;;;;;;;;;;5036986;28;19904;-24
2021/12/25 05:20:21;;;;;;;;;;;;;;;;;;5036595;28;19949;-24
2021/12/25 05:22:49;;;;;;;;;;;;;;;;;;5019166;28;20300;-24
2021/12/25 05:25:15;;;;;;;;;;;;;;;;;;5036786;28;19910;-24
2021/12/25 05:27:42;;;;;;;;;;;;;;;;;;5036489;28;19916;-24
2021/12/25 05:30:09;;;;;;;;;;;;;;;;;;5036564;28;19920;-24
2021/12/25 05:32:35;;;;;;;;;;;;;;;;;;5036519;28;20356;-24
2021/12/25 05:35:03;;;;;;;;;;;;;;;;;;5036655;28;19952;-24
2021/12/25 05:37:31;;;;;;;;;;;;;;;;;;5036282;28;19913;-24
2021/12/25 05:39:57;;;;;;;;;;;;;;;;;;5036522;28;19912;-24
2021/12/25 05:42:24;;;;;;;;;;;;;;;;;;5036268;28;19971;-24
2021/12/25 05:44:51;;;;;;;;;;;;;;;;;;5036237;28;20255;-25
2021/12/25 05:47:17;;;;;;;;;;;;;;;;;;5036412;28;20369;-25
2021/12/25 05:49:43;;;;;;;;;;;;;;;;;;5035895;28;19963;-24
2021/12/25 05:52:10;;;;;;;;;;;;;;;;;;5036419;28;20222;-24
2021/12/25 05:54:37;;;;;;;;;;;;;;;;;;5036074;28;19913;-24
2021/12/25 05:57:03;;;;;;;;;;;;;;;;;;5036144;28;20007;-24
2021/12/25 05:59:29;;;;;;;;;;;;;;;;;;5035832;28;19909;-24
2021/12/25 06:01:57;;;;;;;;;;;;;;;;;;5035916;28;19908;-24
2021/12/25 06:04:23;;;;;;;;;;;;;;;;;;5036094;28;19916;-24
2021/12/25 06:06:49;;;;;;;;;;;;;;;;;;5035787;28;19901;-24
2021/12/25 06:09:18;;;;;;;;;;;;;;;;;;5036048;28;20083;-24
2021/12/25 06:11:45;;;;;;;;;;;;;;;;;;5035686;28;19924;-25
2021/12/25 06:14:18;;;;;;;;;;;;;;;;;;5018129;28;19920;-24
2021/12/25 06:16:44;;;;;;;;;;;;;;;;;;5017725;28;19996;-24
2021/12/25 06:19:11;;;;;;;;;;;;;;;;;;5035614;28;19951;-24
2021/12/25 06:21:39;;;;;;;;;;;;;;;;;;5035850;28;20256;-24
2021/12/25 06:24:06;;;;;;;;;;;;;;;;;;5035787;28;19916;-24
2021/12/25 06:26:33;;;;;;;;;;;;;;;;;;5034595;28;19909;-25
2021/12/25 06:28:59;;;;;;;;;;;;;;;;;;5035378;28;19909;-24
2021/12/25 06:31:25;;;;;;;;;;;;;;;;;;5017953;28;20251;-24
2021/12/25 06:33:53;;;;;;;;;;;;;;;;;;5035360;28;20264;-25
2021/12/25 06:36:21;;;;;;;;;;;;;;;;;;5035486;28;20003;-25
2021/12/25 06:38:47;;;;;;;;;;;;;;;;;;5035217;28;20285;-24
2021/12/25 06:41:15;;;;;;;;;;;;;;;;;;5035285;28;20196;-25
2021/12/25 06:43:41;;;;;;;;;;;;;;;;;;5017775;28;19909;-24
2021/12/25 06:46:07;;;;;;;;;;;;;;;;;;5035453;28;19905;-24
2021/12/25 06:48:35;;;;;;;;;;;;;;;;;;5034679;28;19913;-24
2021/12/25 06:51:01;;;;;;;;;;;;;;;;;;5035319;28;20308;-24
2021/12/25 06:53:28;;;;;;;;;;;;;;;;;;5034982;28;19972;-24
2021/12/25 06:55:55;;;;;;;;;;;;;;;;;;5035121;28;19928;-25
2021/12/25 06:58:22;;;;;;;;;;;;;;;;;;5035124;28;20197;-25
2021/12/25 07:00:49;;;;;;;;;;;;;;;;;;5035125;28;19920;-24
2021/12/25 07:03:15;;;;;;;;;;;;;;;;;;5034856;28;19936;-24
2021/12/25 07:05:41;;;;;;;;;;;;;;;;;;5035096;28;19976;-24
2021/12/25 07:08:09;;;;;;;;;;;;;;;;;;5034765;28;19909;-24
2021/12/25 07:10:35;;;;;;;;;;;;;;;;;;5035069;28;19905;-24
2021/12/25 07:13:02;;;;;;;;;;;;;;;;;;5034710;28;19917;-24
2021/12/25 07:15:28;;;;;;;;;;;;;;;;;;5034714;28;19909;-25
2021/12/25 07:17:54;;;;;;;;;;;;;;;;;;5034646;28;20355;-25
2021/12/25 07:20:22;;;;;;;;;;;;;;;;;;5034722;28;19948;-25
2021/12/25 07:22:48;;;;;;;;;;;;;;;;;;5017216;28;19909;-25
2021/12/25 07:25:14;;;;;;;;;;;;;;;;;;5034599;28;19909;-24
2021/12/25 07:27:40;;;;;;;;;;;;;;;;;;5034517;28;19948;-24
2021/12/25 07:30:06;;;;;;;;;;;;;;;;;;5034549;28;19924;-24
2021/12/25 07:32:36;;;;;;;;;;;;;;;;;;5034820;28;19941;-24
2021/12/25 07:35:02;;;;;;;;;;;;;;;;;;5017121;28;20277;-25
2021/12/25 07:37:28;;;;;;;;;;;;;;;;;;5035595;28;19929;-25
2021/12/25 07:39:56;;;;;;;;;;;;;;;;;;5038545;28;19909;-25
2021/12/25 07:42:22;;;;;;;;;;;;;;;;;;5038739;28;20047;-25
2021/12/25 07:44:53;;;;;;;;;;;;;;;;;;5038697;28;19979;-25
2021/12/25 07:47:21;;;;;;;;;;;;;;;;;;5020663;28;20328;-25
2021/12/25 07:49:49;;;;;;;;;;;;;;;;;;5038001;28;20002;-25
2021/12/25 07:52:15;;;;;;;;;;;;;;;;;;5020881;28;20355;-25
2021/12/25 07:54:41;;;;;;;;;;;;;;;;;;5038614;28;19916;-25
2021/12/25 07:57:07;;;;;;;;;;;;;;;;;;5038119;28;19913;-25
2021/12/25 07:59:33;;;;;;;;;;;;;;;;;;5038283;28;19909;-25
2021/12/25 08:02:02;;;;;;;;;;;;;;;;;;5038492;28;20067;-25
2021/12/25 08:04:30;;;;;;;;;;;;;;;;;;5038133;28;19975;-25
2021/12/25 08:06:56;;;;;;;;;;;;;;;;;;5038235;28;19901;-25
2021/12/25 08:09:32;;;;;;;;;;;;;;;;;;5020532;28;19991;-25
2021/12/25 08:11:59;;;;;;;;;;;;;;;;;;5037965;28;19915;-26
2021/12/25 08:14:25;;;;;;;;;;;;;;;;;;5038316;28;19916;-25
2021/12/25 08:16:53;;;;;;;;;;;;;;;;;;5020184;28;19955;-25
2021/12/25 08:19:20;;;;;;;;;;;;;;;;;;5037771;28;19916;-25
2021/12/25 08:21:46;;;;;;;;;;;;;;;;;;5037774;28;19939;-25
2021/12/25 08:24:12;;;;;;;;;;;;;;;;;;5037791;28;19947;-25
2021/12/25 08:26:38;;;;;;;;;;;;;;;;;;5037675;28;19905;-25
2021/12/25 08:29:07;;;;;;;;;;;;;;;;;;5020110;28;20003;-25
2021/12/25 08:31:33;;;;;;;;;;;;;;;;;;5037837;28;20032;-25
2021/12/25 08:33:59;;;;;;;;;;;;;;;;;;5037827;28;19913;-25
2021/12/25 08:36:25;;;;;;;;;;;;;;;;;;5037675;28;19913;-25
2021/12/25 08:38:51;;;;;;;;;;;;;;;;;;5037443;28;19967;-25
2021/12/25 08:41:21;;;;;;;;;;;;;;;;;;5037358;28;19916;-25
2021/12/25 08:43:50;;;;;;;;;;;;;;;;;;5037713;28;20311;-25
2021/12/25 08:46:18;;;;;;;;;;;;;;;;;;5037260;28;19909;-32
2021/12/25 08:48:44;;;;;;;;;;;;;;;;;;5036330;28;19912;-25
2021/12/25 08:51:11;;;;;;;;;;;;;;;;;;5037556;28;19908;-25
2021/12/25 08:53:40;;;;;;;;;;;;;;;;;;5037224;28;19909;-25
2021/12/25 08:56:06;;;;;;;;;;;;;;;;;;5019524;28;19920;-25
2021/12/25 08:58:34;;;;;;;;;;;;;;;;;;5037084;28;20024;-25
2021/12/25 09:01:06;;;;;;;;;;;;;;;;;;5037013;28;19920;-25
2021/12/25 09:03:34;;;;;;;;;;;;;;;;;;5036912;28;19972;-25
2021/12/25 09:06:02;;;;;;;;;;;;;;;;;;5037270;28;20221;-25
2021/12/25 09:08:29;;;;;;;;;;;;;;;;;;5037147;28;19916;-25
2021/12/25 09:10:55;;;;;;;;;;;;;;;;;;5036792;28;19909;-25
2021/12/25 09:13:22;;;;;;;;;;;;;;;;;;5036830;28;19915;-25
2021/12/25 09:15:48;;;;;;;;;;;;;;;;;;5036904;28;19913;-25
2021/12/25 09:18:14;;;;;;;;;;;;;;;;;;5036613;28;20330;-25
2021/12/25 09:20:40;;;;;;;;;;;;;;;;;;5036510;28;19963;-25
2021/12/25 09:23:07;;;;;;;;;;;;;;;;;;5036559;28;19909;-25
2021/12/25 09:25:35;;;;;;;;;;;;;;;;;;5036732;28;19909;-25
2021/12/25 09:28:01;;;;;;;;;;;;;;;;;;5036450;28;19971;-25
2021/12/25 09:30:28;;;;;;;;;;;;;;;;;;5018939;28;19961;-25
2021/12/25 09:32:54;;;;;;;;;;;;;;;;;;5036700;28;19905;-25
2021/12/25 09:35:21;;;;;;;;;;;;;;;;;;5018874;28;19919;-24
2021/12/25 09:37:47;;;;;;;;;;;;;;;;;;5036190;28;19924;-24
2021/12/25 09:40:13;;;;;;;;;;;;;;;;;;5036248;28;19995;-24
2021/12/25 09:42:43;;;;;;;;;;;;;;;;;;5036449;28;19990;-24
2021/12/25 09:45:09;;;;;;;;;;;;;;;;;;5036126;28;19908;-24
2021/12/25 09:47:35;;;;;;;;;;;;;;;;;;5036007;28;19909;-24
2021/12/25 09:50:02;;;;;;;;;;;;;;;;;;5035743;28;20274;-24
2021/12/25 09:52:28;;;;;;;;;;;;;;;;;;5036013;28;19905;-24
2021/12/25 09:54:55;;;;;;;;;;;;;;;;;;5036259;28;19913;-24
2021/12/25 09:57:23;;;;;;;;;;;;;;;;;;5035718;28;19912;-25
2021/12/25 09:59:51;;;;;;;;;;;;;;;;;;5035960;28;19940;-24
2021/12/25 10:02:17;;;;;;;;;;;;;;;;;;5035840;28;19909;-24
2021/12/25 10:04:45;;;;;;;;;;;;;;;;;;5035930;28;19980;-24
2021/12/25 10:07:11;;;;;;;;;;;;;;;;;;5036005;28;19912;-24
2021/12/25 10:09:37;;;;;;;;;;;;;;;;;;5018414;28;19944;-24
2021/12/25 10:12:08;;;;;;;;;;;;;;;;;;5035784;28;20003;-24
2021/12/25 10:14:36;;;;;;;;;;;;;;;;;;5035996;28;19924;-24
2021/12/25 10:17:02;;;;;;;;;;;;;;;;;;5018047;28;20241;-24
2021/12/25 10:19:31;;;;;;;;;;;;;;;;;;5035962;28;20248;-24
2021/12/25 10:21:58;;;;;;;;;;;;;;;;;;5035634;28;19915;-24
2021/12/25 10:24:28;;;;;;;;;;;;;;;;;;5035620;28;19905;-24
2021/12/25 10:26:56;;;;;;;;;;;;;;;;;;5035635;28;20247;-24
2021/12/25 10:29:22;;;;;;;;;;;;;;;;;;5035571;28;19905;-24
2021/12/25 10:31:50;;;;;;;;;;;;;;;;;;5035401;28;20290;-25
2021/12/25 10:34:16;;;;;;;;;;;;;;;;;;5017899;28;19920;-24
2021/12/25 10:36:42;;;;;;;;;;;;;;;;;;5035261;28;19980;-24
2021/12/25 10:39:10;;;;;;;;;;;;;;;;;;5035232;28;19909;-24
2021/12/25 10:41:37;;;;;;;;;;;;;;;;;;5036010;28;19905;-24
2021/12/25 10:44:03;;;;;;;;;;;;;;;;;;5035202;28;19943;-24
2021/12/25 10:46:30;;;;;;;;;;;;;;;;;;5035467;28;19905;-25
2021/12/25 10:48:56;;;;;;;;;;;;;;;;;;5034878;28;19917;-24
2021/12/25 10:51:23;;;;;;;;;;;;;;;;;;5035439;28;19959;-24
2021/12/25 10:53:50;;;;;;;;;;;;;;;;;;5035120;28;20223;-24
2021/12/25 10:56:16;;;;;;;;;;;;;;;;;;5035254;28;19913;-24
2021/12/25 10:58:42;;;;;;;;;;;;;;;;;;5034958;28;19995;-24
2021/12/25 11:01:08;;;;;;;;;;;;;;;;;;5034972;28;19917;-24
2021/12/25 11:03:35;;;;;;;;;;;;;;;;;;5035170;28;19971;-24
2021/12/25 11:06:02;;;;;;;;;;;;;;;;;;5017477;28;20336;-25
2021/12/25 11:08:29;;;;;;;;;;;;;;;;;;5034774;28;19913;-25
2021/12/25 11:10:56;;;;;;;;;;;;;;;;;;5034774;28;19953;-25
2021/12/25 11:13:22;;;;;;;;;;;;;;;;;;5034470;28;19909;-25
2021/12/25 11:15:49;;;;;;;;;;;;;;;;;;5034679;28;20003;-25
2021/12/25 11:18:19;;;;;;;;;;;;;;;;;;5034543;28;19916;-25
2021/12/25 11:20:46;;;;;;;;;;;;;;;;;;5034691;28;19941;-25
2021/12/25 11:23:12;;;;;;;;;;;;;;;;;;5034628;28;20332;-25
2021/12/25 11:25:40;;;;;;;;;;;;;;;;;;5034861;28;19925;-25
2021/12/25 11:28:10;;;;;;;;;;;;;;;;;;5034623;28;19912;-25
2021/12/25 11:30:36;;;;;;;;;;;;;;;;;;5034849;28;19975;-25
2021/12/25 11:33:02;;;;;;;;;;;;;;;;;;5034632;28;20003;-25
2021/12/25 11:35:28;;;;;;;;;;;;;;;;;;5034548;28;20298;-25
2021/12/25 11:37:58;;;;;;;;;;;;;;;;;;5016942;28;19909;-25
2021/12/25 11:40:24;;;;;;;;;;;;;;;;;;5034516;28;19988;-25
2021/12/25 11:42:52;;;;;;;;;;;;;;;;;;5034760;28;20336;-25
2021/12/25 11:45:19;;;;;;;;;;;;;;;;;;5016982;28;20336;-25
2021/12/25 11:47:45;;;;;;;;;;;;;;;;;;5034429;28;19963;-25
2021/12/25 11:50:11;;;;;;;;;;;;;;;;;;5034046;28;19913;-25
2021/12/25 11:52:53;;;;;;;;;;;;;;;;;;5034404;28;19905;-25
2021/12/25 11:58:04;;;;;;;;;;;;;;;;;;5034205;28;19913;-25
2021/12/25 12:00:31;;;;;;;;;;;;;;;;;;5016701;28;20248;-25
2021/12/25 12:02:58;;;;;;;;;;;;;;;;;;5034340;28;19909;-25
2021/12/25 12:05:25;;;;;;;;;;;;;;;;;;5034223;28;20012;-25
2021/12/25 12:07:51;;;;;;;;;;;;;;;;;;5034176;28;19924;-25
2021/12/25 12:10:19;;;;;;;;;;;;;;;;;;5034219;28;20260;-25
2021/12/25 12:12:46;;;;;;;;;;;;;;;;;;5034530;28;19941;-26
2021/12/25 12:15:12;;;;;;;;;;;;;;;;;;5034147;28;20260;-25
2021/12/25 12:17:40;;;;;;;;;;;;;;;;;;5034275;28;19909;-25
2021/12/25 12:20:10;;;;;;;;;;;;;;;;;;5034161;28;19913;-25
2021/12/25 12:22:51;;;;;;;;;;;;;;;;;;5016683;28;20355;-26
2021/12/25 12:25:41;;;;;;;;;;;;;;;;;;5018470;28;20229;-26
2021/12/25 12:28:07;;;;;;;;;;;;;;;;;;5020054;28;19955;-25
2021/12/25 12:30:34;;;;;;;;;;;;;;;;;;5037890;28;19928;-26
2021/12/25 12:33:00;;;;;;;;;;;;;;;;;;5037670;28;19909;-25
2021/12/25 12:35:26;;;;;;;;;;;;;;;;;;5037878;28;19919;-25
2021/12/25 12:37:54;;;;;;;;;;;;;;;;;;5020009;28;19929;-25
2021/12/25 12:40:20;;;;;;;;;;;;;;;;;;5037566;28;19908;-26
2021/12/25 12:42:48;;;;;;;;;;;;;;;;;;5037398;28;19905;-26
2021/12/25 12:45:14;;;;;;;;;;;;;;;;;;5019879;28;20407;-26
2021/12/25 12:47:43;;;;;;;;;;;;;;;;;;5037204;28;20015;-26
2021/12/25 12:50:11;;;;;;;;;;;;;;;;;;5037641;28;19913;-26
2021/12/25 12:52:39;;;;;;;;;;;;;;;;;;5037851;28;19909;-26
2021/12/25 12:55:05;;;;;;;;;;;;;;;;;;5037324;28;20013;-26
2021/12/25 12:57:31;;;;;;;;;;;;;;;;;;5037089;28;19919;-26
2021/12/25 12:59:58;;;;;;;;;;;;;;;;;;5037222;28;19988;-26
2021/12/25 13:02:24;;;;;;;;;;;;;;;;;;5037392;28;19905;-26
2021/12/25 13:04:50;;;;;;;;;;;;;;;;;;5037054;28;19905;-26
2021/12/25 13:07:16;;;;;;;;;;;;;;;;;;5036961;28;19909;-26
2021/12/25 13:09:47;;;;;;;;;;;;;;;;;;5036940;28;19909;-26
2021/12/25 13:12:32;;;;;;;;;;;;;;;;;;5019324;28;19909;-26
2021/12/25 13:14:59;;;;;;;;;;;;;;;;;;5037176;28;19990;-26
2021/12/25 13:17:25;;;;;;;;;;;;;;;;;;5036689;28;19913;-26
2021/12/25 13:19:53;;;;;;;;;;;;;;;;;;5036767;28;19940;-26
2021/12/25 13:22:21;;;;;;;;;;;;;;;;;;5037506;28;19915;-26
2021/12/25 13:24:54;;;;;;;;;;;;;;;;;;5037185;28;19917;-26
2021/12/25 13:27:22;;;;;;;;;;;;;;;;;;5036868;28;19993;-26
2021/12/25 13:29:48;;;;;;;;;;;;;;;;;;5036529;28;19917;-26
2021/12/25 13:32:15;;;;;;;;;;;;;;;;;;5036591;28;19916;-27
2021/12/25 13:34:43;;;;;;;;;;;;;;;;;;5019030;28;19905;-26
2021/12/25 13:37:15;;;;;;;;;;;;;;;;;;5036033;28;19966;-26
2021/12/25 13:39:41;;;;;;;;;;;;;;;;;;5036513;28;20311;-26
2021/12/25 13:42:07;;;;;;;;;;;;;;;;;;5036369;28;19948;-26
2021/12/25 13:44:35;;;;;;;;;;;;;;;;;;5018851;28;19905;-26
2021/12/25 13:47:01;;;;;;;;;;;;;;;;;;5036234;28;19909;-26
2021/12/25 13:49:29;;;;;;;;;;;;;;;;;;5036008;28;19913;-26
2021/12/25 13:51:56;;;;;;;;;;;;;;;;;;5036372;28;19901;-26
2021/12/25 13:54:23;;;;;;;;;;;;;;;;;;5036162;28;19909;-26
2021/12/25 13:56:49;;;;;;;;;;;;;;;;;;5018504;28;19957;-26
2021/12/25 13:59:15;;;;;;;;;;;;;;;;;;5035903;28;20415;-26
2021/12/25 14:01:41;;;;;;;;;;;;;;;;;;5036029;28;19909;-26
2021/12/25 14:04:09;;;;;;;;;;;;;;;;;;5036298;28;20314;-26
2021/12/25 14:06:36;;;;;;;;;;;;;;;;;;5035965;28;19909;-26
2021/12/25 14:09:03;;;;;;;;;;;;;;;;;;5035760;28;19940;-26
2021/12/25 14:11:30;;;;;;;;;;;;;;;;;;5018391;28;19909;-26
2021/12/25 14:13:56;;;;;;;;;;;;;;;;;;5035792;28;19939;-26
2021/12/25 14:16:24;;;;;;;;;;;;;;;;;;5035691;28;20316;-26
2021/12/25 14:18:50;;;;;;;;;;;;;;;;;;5035876;28;20252;-26
2021/12/25 14:21:17;;;;;;;;;;;;;;;;;;5035601;28;19913;-26
2021/12/25 14:23:45;;;;;;;;;;;;;;;;;;5035894;28;19933;-26
2021/12/25 14:26:12;;;;;;;;;;;;;;;;;;5035487;28;19909;-31
2021/12/25 14:28:38;;;;;;;;;;;;;;;;;;5035358;28;20342;-32
2021/12/25 14:31:05;;;;;;;;;;;;;;;;;;5035606;28;19919;-29
2021/12/25 14:33:31;;;;;;;;;;;;;;;;;;5035417;28;20270;-29
2021/12/25 14:35:58;;;;;;;;;;;;;;;;;;5035333;28;20330;-30
2021/12/25 14:38:25;;;;;;;;;;;;;;;;;;5035257;28;19909;-32
2021/12/25 14:40:52;;;;;;;;;;;;;;;;;;5035581;28;19905;-28
2021/12/25 14:43:19;;;;;;;;;;;;;;;;;;5035367;28;19944;-30
2021/12/25 14:45:46;;;;;;;;;;;;;;;;;;5035548;28;19996;-30
2021/12/25 14:48:12;;;;;;;;;;;;;;;;;;5034530;28;19905;-28
2021/12/25 14:50:40;;;;;;;;;;;;;;;;;;5035036;28;19913;-31
2021/12/25 14:53:08;;;;;;;;;;;;;;;;;;5035160;28;19972;-30
2021/12/25 14:55:34;;;;;;;;;;;;;;;;;;5035367;28;19909;-31
2021/12/25 14:58:02;;;;;;;;;;;;;;;;;;5034924;28;20021;-29
2021/12/25 15:00:30;;;;;;;;;;;;;;;;;;5034997;28;20248;-30
2021/12/25 15:02:56;;;;;;;;;;;;;;;;;;5017465;28;19905;-29
2021/12/25 15:05:23;;;;;;;;;;;;;;;;;;5035153;28;19909;-31
2021/12/25 15:07:49;;;;;;;;;;;;;;;;;;5017370;28;19905;-27
2021/12/25 15:10:15;;;;;;;;;;;;;;;;;;5034869;28;19948;-30
2021/12/25 15:12:45;;;;;;;;;;;;;;;;;;5035098;28;19905;-29
2021/12/25 15:15:14;;;;;;;;;;;;;;;;;;5034735;28;19963;-31
2021/12/25 15:17:40;;;;;;;;;;;;;;;;;;5034656;28;19970;-25
2021/12/25 15:20:06;;;;;;;;;;;;;;;;;;5034745;28;20375;-32
2021/12/25 15:22:32;;;;;;;;;;;;;;;;;;5034620;28;19944;-31
2021/12/25 15:24:58;;;;;;;;;;;;;;;;;;5035049;28;19990;-30
2021/12/25 15:27:25;;;;;;;;;;;;;;;;;;5034689;28;19909;-29
2021/12/25 15:29:51;;;;;;;;;;;;;;;;;;5034637;28;19972;-28
2021/12/25 15:32:18;;;;;;;;;;;;;;;;;;5017326;28;20012;-29
2021/12/25 15:34:46;;;;;;;;;;;;;;;;;;5034652;28;19963;-33
2021/12/25 15:37:12;;;;;;;;;;;;;;;;;;5034532;28;19909;-30
2021/12/25 15:39:38;;;;;;;;;;;;;;;;;;5034907;28;20311;-32
2021/12/25 15:42:04;;;;;;;;;;;;;;;;;;5034501;28;19916;-32
2021/12/25 15:44:31;;;;;;;;;;;;;;;;;;5034557;28;20252;-30
2021/12/25 15:46:57;;;;;;;;;;;;;;;;;;5034316;28;19919;-29
2021/12/25 15:49:23;;;;;;;;;;;;;;;;;;5034248;28;19913;-32
2021/12/25 15:51:50;;;;;;;;;;;;;;;;;;5034463;28;19909;-33
2021/12/25 15:54:17;;;;;;;;;;;;;;;;;;5034413;28;19940;-28
2021/12/25 15:56:46;;;;;;;;;;;;;;;;;;5034320;28;19917;-31
2021/12/25 15:59:14;;;;;;;;;;;;;;;;;;5036748;28;20289;-28
2021/12/25 16:01:43;;;;;;;;;;;;;;;;;;5038344;28;19916;-28
2021/12/25 16:04:09;;;;;;;;;;;;;;;;;;5038314;28;20271;-32
2021/12/25 16:06:35;;;;;;;;;;;;;;;;;;5038234;28;19951;-31
2021/12/25 16:09:04;;;;;;;;;;;;;;;;;;5020695;28;19916;-27
2021/12/25 16:11:32;;;;;;;;;;;;;;;;;;5038027;28;19916;-31
2021/12/25 16:13:59;;;;;;;;;;;;;;;;;;5038094;28;19905;-34
2021/12/25 16:16:27;;;;;;;;;;;;;;;;;;5037986;28;19913;-30
2021/12/25 16:18:53;;;;;;;;;;;;;;;;;;5037986;28;19905;-29
2021/12/25 16:21:20;;;;;;;;;;;;;;;;;;5020453;28;20388;-28
2021/12/25 16:23:47;;;;;;;;;;;;;;;;;;5037821;28;19916;-27
2021/12/25 16:26:13;;;;;;;;;;;;;;;;;;5038147;28;20290;-31
2021/12/25 16:28:39;;;;;;;;;;;;;;;;;;5037844;28;19978;-29
2021/12/25 16:31:07;;;;;;;;;;;;;;;;;;5037789;28;19919;-31
2021/12/25 16:33:33;;;;;;;;;;;;;;;;;;5037730;28;20366;-26
2021/12/25 16:36:02;;;;;;;;;;;;;;;;;;5037610;28;19919;-28
2021/12/25 16:38:30;;;;;;;;;;;;;;;;;;5020074;28;19976;-33
2021/12/25 16:40:57;;;;;;;;;;;;;;;;;;5037491;28;19909;-30
2021/12/25 16:43:23;;;;;;;;;;;;;;;;;;5037830;28;19928;-28
2021/12/25 16:45:49;;;;;;;;;;;;;;;;;;5037526;28;19920;-28
2021/12/25 16:48:15;;;;;;;;;;;;;;;;;;5037653;28;20244;-34
2021/12/25 16:50:42;;;;;;;;;;;;;;;;;;5037310;28;20308;-28
2021/12/25 16:53:08;;;;;;;;;;;;;;;;;;5037433;28;20224;-29
2021/12/25 16:55:34;;;;;;;;;;;;;;;;;;5037590;28;20364;-30
2021/12/25 16:58:02;;;;;;;;;;;;;;;;;;5019711;28;19928;-29
2021/12/25 17:00:28;;;;;;;;;;;;;;;;;;5037855;28;19909;-31
2021/12/25 17:02:56;;;;;;;;;;;;;;;;;;5037157;28;20416;-29
2021/12/25 17:05:22;;;;;;;;;;;;;;;;;;5019622;28;19909;-35
2021/12/25 17:07:48;;;;;;;;;;;;;;;;;;5037129;28;19999;-27
2021/12/25 17:10:14;;;;;;;;;;;;;;;;;;5036446;28;19928;-29
2021/12/25 17:12:42;;;;;;;;;;;;;;;;;;5037346;28;20304;-27
2021/12/25 17:15:08;;;;;;;;;;;;;;;;;;5036909;28;19951;-32
2021/12/25 17:17:35;;;;;;;;;;;;;;;;;;5036743;28;19909;-32
2021/12/25 17:20:01;;;;;;;;;;;;;;;;;;5036810;28;19963;-26
2021/12/25 17:22:29;;;;;;;;;;;;;;;;;;5036773;28;19948;-28
2021/12/25 17:24:55;;;;;;;;;;;;;;;;;;5036937;28;19920;-30
2021/12/25 17:27:21;;;;;;;;;;;;;;;;;;5036569;28;19904;-27
2021/12/25 17:29:49;;;;;;;;;;;;;;;;;;5019185;28;20384;-33
2021/12/25 17:32:15;;;;;;;;;;;;;;;;;;5036823;28;19919;-27
2021/12/25 17:34:42;;;;;;;;;;;;;;;;;;5036645;28;19905;-27
2021/12/25 17:37:08;;;;;;;;;;;;;;;;;;5018911;28;20248;-30
2021/12/25 17:39:35;;;;;;;;;;;;;;;;;;5036732;28;20344;-30
2021/12/25 17:42:04;;;;;;;;;;;;;;;;;;5036734;28;20205;-30
2021/12/25 17:44:32;;;;;;;;;;;;;;;;;;5036399;28;19935;-28
2021/12/25 17:46:59;;;;;;;;;;;;;;;;;;5036261;28;19905;-30
2021/12/25 17:49:25;;;;;;;;;;;;;;;;;;5036220;28;19924;-27
2021/12/25 17:51:51;;;;;;;;;;;;;;;;;;5036469;28;20291;-29
2021/12/25 17:54:17;;;;;;;;;;;;;;;;;;5036396;28;19936;-34